sensor_id;sensor_type;location;lat;lon;timestamp;pressure;altitude;pressure_sealevel;temperature;humidity
9277;BME280;4676;42.678;23.244;2023-01-24T00:02:23;94975.13;;;4.47;100.00
9277;BME280;4676;42.678;23.244;2023-01-24T00:04:50;94965.94;;;4.43;100.00
9277;BME280;4676;42.678;23.244;2023-01-24T00:07:17;94971.81;;;4.41;100.00
9277;BME280;4676;42.678;23.244;2023-01-24T00:09:43;94971.81;;;4.38;100.00
9277;BME280;4676;42.678;23.244;2023-01-24T00:12:10;94971.78;;;4.45;100.00
9277;BME280;4676;42.678;23.244;2023-01-24T00:14:38;94973.47;;;4.48;100.00
9277;BME280;4676;42.678;23.244;2023-01-24T00:17:05;94979.34;;;4.42;100.00
9277;BME280;4676;42.678;23.244;2023-01-24T00:19:34;94981.00;;;4.42;100.00
9277;BME280;4676;42.678;23.244;2023-01-24T00:22:01;94982.69;;;4.46;100.00
9277;BME280;4676;42.678;23.244;2023-01-24T00:24:28;94986.03;;;4.37;100.00
9277;BME280;4676;42.678;23.244;2023-01-24T00:26:55;94981.84;;;4.38;100.00
9277;BME280;4676;42.678;23.244;2023-01-24T00:29:21;94985.19;;;4.40;100.00
9277;BME280;4676;42.678;23.244;2023-01-24T00:31:49;94981.84;;;4.33;100.00
9277;BME280;4676;42.678;23.244;2023-01-24T00:34:16;94971.00;;;4.24;100.00
9277;BME280;4676;42.678;23.244;2023-01-24T00:36:43;94986.03;;;4.33;100.00
9277;BME280;4676;42.678;23.244;2023-01-24T00:39:10;94990.22;;;4.38;100.00
9277;BME280;4676;42.678;23.244;2023-01-24T00:41:37;94991.88;;;4.41;100.00
9277;BME280;4676;42.678;23.244;2023-01-24T00:44:04;94986.00;;;4.40;100.00
9277;BME280;4676;42.678;23.244;2023-01-24T00:46:30;94986.00;;;4.45;100.00
9277;BME280;4676;42.678;23.244;2023-01-24T00:48:58;94983.53;;;4.34;100.00
9277;BME280;4676;42.678;23.244;2023-01-24T00:51:26;94986.03;;;4.33;100.00
9277;BME280;4676;42.678;23.244;2023-01-24T00:53:52;94989.41;;;4.32;100.00
9277;BME280;4676;42.678;23.244;2023-01-24T00:56:19;94992.75;;;4.32;100.00
9277;BME280;4676;42.678;23.244;2023-01-24T00:58:46;94988.56;;;4.31;100.00
9277;BME280;4676;42.678;23.244;2023-01-24T01:01:13;94994.44;;;4.18;100.00
9277;BME280;4676;42.678;23.244;2023-01-24T01:03:39;94986.91;;;4.24;100.00
9277;BME280;4676;42.678;23.244;2023-01-24T01:06:12;94990.25;;;4.17;100.00
9277;BME280;4676;42.678;23.244;2023-01-24T01:08:41;94991.91;;;4.24;100.00
9277;BME280;4676;42.678;23.244;2023-01-24T01:11:08;94990.25;;;4.23;100.00
9277;BME280;4676;42.678;23.244;2023-01-24T01:13:35;94989.41;;;4.20;100.00
9277;BME280;4676;42.678;23.244;2023-01-24T01:16:03;94985.22;;;4.13;100.00
9277;BME280;4676;42.678;23.244;2023-01-24T01:18:30;94988.59;;;4.10;100.00
9277;BME280;4676;42.678;23.244;2023-01-24T01:20:57;94996.13;;;4.12;100.00
9277;BME280;4676;42.678;23.244;2023-01-24T01:23:26;94999.47;;;4.11;100.00
9277;BME280;4676;42.678;23.244;2023-01-24T01:25:52;94997.78;;;4.13;100.00
9277;BME280;4676;42.678;23.244;2023-01-24T01:28:19;94992.78;;;4.08;100.00
9277;BME280;4676;42.678;23.244;2023-01-24T01:30:51;94999.44;;;4.12;100.00
9277;BME280;4676;42.678;23.244;2023-01-24T01:33:18;94996.09;;;4.13;100.00
9277;BME280;4676;42.678;23.244;2023-01-24T01:35:46;95000.31;;;4.11;100.00
9277;BME280;4676;42.678;23.244;2023-01-24T01:38:13;95001.16;;;4.04;100.00
9277;BME280;4676;42.678;23.244;2023-01-24T01:40:41;94995.28;;;3.99;100.00
9277;BME280;4676;42.678;23.244;2023-01-24T01:43:11;95000.28;;;4.05;100.00
9277;BME280;4676;42.678;23.244;2023-01-24T01:45:41;95001.13;;;4.06;100.00
9277;BME280;4676;42.678;23.244;2023-01-24T01:48:22;94996.09;;;4.09;100.00
9277;BME280;4676;42.678;23.244;2023-01-24T01:50:56;94995.28;;;4.11;100.00
9277;BME280;4676;42.678;23.244;2023-01-24T01:53:27;94996.94;;;4.18;100.00
9277;BME280;4676;42.678;23.244;2023-01-24T01:56:01;94996.94;;;4.15;100.00
9277;BME280;4676;42.678;23.244;2023-01-24T01:58:29;95001.97;;;4.17;100.00
9277;BME280;4676;42.678;23.244;2023-01-24T02:00:56;94991.91;;;4.24;100.00
9277;BME280;4676;42.678;23.244;2023-01-24T02:03:32;94998.56;;;4.33;100.00
9277;BME280;4676;42.678;23.244;2023-01-24T02:06:13;94996.09;;;4.21;100.00
9277;BME280;4676;42.678;23.244;2023-01-24T02:08:43;94989.41;;;4.17;100.00
9277;BME280;4676;42.678;23.244;2023-01-24T02:11:12;94987.72;;;4.19;100.00
9277;BME280;4676;42.678;23.244;2023-01-24T02:13:59;94990.25;;;4.14;100.00
9277;BME280;4676;42.678;23.244;2023-01-24T02:16:40;94978.56;;;4.13;100.00
9277;BME280;4676;42.678;23.244;2023-01-24T02:19:11;94980.22;;;4.17;100.00
9277;BME280;4676;42.678;23.244;2023-01-24T02:21:42;94980.22;;;4.14;100.00
9277;BME280;4676;42.678;23.244;2023-01-24T02:24:18;94991.09;;;4.16;100.00
9277;BME280;4676;42.678;23.244;2023-01-24T02:26:48;94982.75;;;4.07;100.00
9277;BME280;4676;42.678;23.244;2023-01-24T02:29:16;94982.72;;;4.05;100.00
9277;BME280;4676;42.678;23.244;2023-01-24T02:31:53;94984.44;;;3.97;100.00
9277;BME280;4676;42.678;23.244;2023-01-24T02:34:20;94981.06;;;3.95;100.00
9277;BME280;4676;42.678;23.244;2023-01-24T02:36:50;94991.13;;;3.86;100.00
9277;BME280;4676;42.678;23.244;2023-01-24T02:39:22;94988.59;;;3.81;100.00
9277;BME280;4676;42.678;23.244;2023-01-24T02:41:55;94989.44;;;3.89;100.00
9277;BME280;4676;42.678;23.244;2023-01-24T02:44:30;94990.28;;;3.79;100.00
9277;BME280;4676;42.678;23.244;2023-01-24T02:46:59;94996.13;;;3.81;100.00
9277;BME280;4676;42.678;23.244;2023-01-24T02:49:26;94996.97;;;3.82;100.00
9277;BME280;4676;42.678;23.244;2023-01-24T02:51:52;94976.91;;;3.80;100.00
9277;BME280;4676;42.678;23.244;2023-01-24T02:54:37;94989.44;;;3.82;100.00
9277;BME280;4676;42.678;23.244;2023-01-24T02:57:06;94986.09;;;3.90;100.00
9277;BME280;4676;42.678;23.244;2023-01-24T02:59:50;94982.75;;;3.90;100.00
9277;BME280;4676;42.678;23.244;2023-01-24T03:02:17;94982.75;;;4.00;100.00
9277;BME280;4676;42.678;23.244;2023-01-24T03:04:43;94973.56;;;3.99;100.00
9277;BME280;4676;42.678;23.244;2023-01-24T03:07:10;94981.09;;;3.96;100.00
9277;BME280;4676;42.678;23.244;2023-01-24T03:09:37;94977.72;;;3.88;100.00
9277;BME280;4676;42.678;23.244;2023-01-24T03:12:06;94981.94;;;3.76;100.00
9277;BME280;4676;42.678;23.244;2023-01-24T03:14:51;94976.06;;;3.83;100.00
9277;BME280;4676;42.678;23.244;2023-01-24T03:17:35;94981.09;;;3.78;100.00
9277;BME280;4676;42.678;23.244;2023-01-24T03:20:19;94985.28;;;3.79;100.00
9277;BME280;4676;42.678;23.244;2023-01-24T03:23:04;94967.72;;;3.75;100.00
9277;BME280;4676;42.678;23.244;2023-01-24T03:25:53;94989.44;;;3.80;100.00
9277;BME280;4676;42.678;23.244;2023-01-24T03:28:39;94982.75;;;3.70;100.00
9277;BME280;4676;42.678;23.244;2023-01-24T03:31:23;94975.22;;;3.64;100.00
9277;BME280;4676;42.678;23.244;2023-01-24T03:34:08;94985.25;;;3.67;100.00
9277;BME280;4676;42.678;23.244;2023-01-24T03:36:52;94980.25;;;3.64;100.00
9277;BME280;4676;42.678;23.244;2023-01-24T03:39:18;94971.88;;;3.50;100.00
9277;BME280;4676;42.678;23.244;2023-01-24T03:42:03;94962.69;;;3.47;100.00
9277;BME280;4676;42.678;23.244;2023-01-24T03:44:34;94969.38;;;3.42;100.00
9277;BME280;4676;42.678;23.244;2023-01-24T03:47:03;94974.38;;;3.41;100.00
9277;BME280;4676;42.678;23.244;2023-01-24T03:49:30;94973.56;;;3.37;100.00
9277;BME280;4676;42.678;23.244;2023-01-24T03:52:14;94971.03;;;3.30;100.00
9277;BME280;4676;42.678;23.244;2023-01-24T03:54:55;94966.84;;;3.35;100.00
9277;BME280;4676;42.678;23.244;2023-01-24T03:57:23;94964.34;;;3.35;100.00
9277;BME280;4676;42.678;23.244;2023-01-24T03:59:51;94962.69;;;3.43;100.00
9277;BME280;4676;42.678;23.244;2023-01-24T04:02:18;94964.34;;;3.30;100.00
9277;BME280;4676;42.678;23.244;2023-01-24T04:04:45;94964.34;;;3.33;100.00
9277;BME280;4676;42.678;23.244;2023-01-24T04:07:30;94935.09;;;3.19;100.00
9277;BME280;4676;42.678;23.244;2023-01-24T04:09:57;94954.31;;;3.27;100.00
9277;BME280;4676;42.678;23.244;2023-01-24T04:12:24;94957.66;;;3.31;100.00
9277;BME280;4676;42.678;23.244;2023-01-24T04:14:53;94949.31;;;3.23;100.00
9277;BME280;4676;42.678;23.244;2023-01-24T04:17:20;94969.38;;;3.36;100.00
9277;BME280;4676;42.678;23.244;2023-01-24T04:19:47;94962.69;;;3.37;100.00
9277;BME280;4676;42.678;23.244;2023-01-24T04:22:14;94960.16;;;3.28;100.00
9277;BME280;4676;42.678;23.244;2023-01-24T04:24:42;94959.31;;;3.18;100.00
9277;BME280;4676;42.678;23.244;2023-01-24T04:27:08;94943.47;;;3.19;100.00
9277;BME280;4676;42.678;23.244;2023-01-24T04:29:36;94951.81;;;3.23;100.00
9277;BME280;4676;42.678;23.244;2023-01-24T04:32:04;94965.16;;;3.25;100.00
9277;BME280;4676;42.678;23.244;2023-01-24T04:34:31;94963.47;;;3.24;100.00
9277;BME280;4676;42.678;23.244;2023-01-24T04:36:58;94969.31;;;3.18;100.00
9277;BME280;4676;42.678;23.244;2023-01-24T04:39:25;94965.97;;;3.21;100.00
9277;BME280;4676;42.678;23.244;2023-01-24T04:41:52;94958.47;;;3.19;100.00
9277;BME280;4676;42.678;23.244;2023-01-24T04:44:18;94969.31;;;3.18;100.00
9277;BME280;4676;42.678;23.244;2023-01-24T04:46:45;94979.31;;;3.14;100.00
9277;BME280;4676;42.678;23.244;2023-01-24T04:49:13;94978.47;;;3.13;100.00
9277;BME280;4676;42.678;23.244;2023-01-24T04:51:40;94970.97;;;3.10;100.00
9277;BME280;4676;42.678;23.244;2023-01-24T04:54:08;94975.16;;;3.17;100.00
9277;BME280;4676;42.678;23.244;2023-01-24T04:56:35;94976.84;;;3.20;100.00
9277;BME280;4676;42.678;23.244;2023-01-24T04:59:02;94985.19;;;3.14;100.00
9277;BME280;4676;42.678;23.244;2023-01-24T05:01:28;94986.00;;;3.13;100.00
9277;BME280;4676;42.678;23.244;2023-01-24T05:03:55;94981.84;;;3.09;100.00
9277;BME280;4676;42.678;23.244;2023-01-24T05:06:25;94986.81;;;3.03;100.00
9277;BME280;4676;42.678;23.244;2023-01-24T05:08:53;94980.09;;;2.96;100.00
9277;BME280;4676;42.678;23.244;2023-01-24T05:11:20;94989.31;;;2.95;100.00
9277;BME280;4676;42.678;23.244;2023-01-24T05:13:47;94997.63;;;2.91;100.00
9277;BME280;4676;42.678;23.244;2023-01-24T05:16:14;94999.34;;;2.98;100.00
9277;BME280;4676;42.678;23.244;2023-01-24T05:18:41;95000.16;;;3.03;100.00
9277;BME280;4676;42.678;23.244;2023-01-24T05:21:11;95005.19;;;3.05;100.00
9277;BME280;4676;42.678;23.244;2023-01-24T05:23:39;95016.06;;;3.09;100.00
9277;BME280;4676;42.678;23.244;2023-01-24T05:26:07;95030.25;;;3.11;100.00
9277;BME280;4676;42.678;23.244;2023-01-24T05:28:34;95039.44;;;3.17;100.00
9277;BME280;4676;42.678;23.244;2023-01-24T05:31:02;95040.28;;;3.19;100.00
9277;BME280;4676;42.678;23.244;2023-01-24T05:33:29;95035.22;;;3.07;100.00
9277;BME280;4676;42.678;23.244;2023-01-24T05:35:57;95004.31;;;2.88;100.00
9277;BME280;4676;42.678;23.244;2023-01-24T05:38:24;95035.25;;;3.05;100.00
9277;BME280;4676;42.678;23.244;2023-01-24T05:40:53;95021.91;;;3.06;100.00
9277;BME280;4676;42.678;23.244;2023-01-24T05:43:19;95031.00;;;2.93;100.00
9277;BME280;4676;42.678;23.244;2023-01-24T05:45:46;95028.53;;;2.95;100.00
9277;BME280;4676;42.678;23.244;2023-01-24T05:48:13;95036.88;;;2.98;100.00
9277;BME280;4676;42.678;23.244;2023-01-24T05:50:39;95039.38;;;2.97;100.00
9277;BME280;4676;42.678;23.244;2023-01-24T05:53:06;94972.44;;;2.52;100.00
9277;BME280;4676;42.678;23.244;2023-01-24T05:55:33;95041.00;;;2.89;100.00
9277;BME280;4676;42.678;23.244;2023-01-24T05:58:01;95034.34;;;2.88;100.00
9277;BME280;4676;42.678;23.244;2023-01-24T06:00:27;95041.03;;;2.92;100.00
9277;BME280;4676;42.678;23.244;2023-01-24T06:02:54;95049.34;;;2.89;100.00
9277;BME280;4676;42.678;23.244;2023-01-24T06:05:26;95052.72;;;2.94;100.00
9277;BME280;4676;42.678;23.244;2023-01-24T06:07:53;95054.34;;;2.83;100.00
9277;BME280;4676;42.678;23.244;2023-01-24T06:10:20;95053.50;;;2.83;100.00
9277;BME280;4676;42.678;23.244;2023-01-24T06:12:46;95056.03;;;2.87;100.00
9277;BME280;4676;42.678;23.244;2023-01-24T06:15:14;95056.00;;;2.80;100.00
9277;BME280;4676;42.678;23.244;2023-01-24T06:17:41;95058.47;;;2.78;100.00
9277;BME280;4676;42.678;23.244;2023-01-24T06:20:10;95058.50;;;2.81;100.00
9277;BME280;4676;42.678;23.244;2023-01-24T06:22:43;95066.81;;;2.76;100.00
9277;BME280;4676;42.678;23.244;2023-01-24T06:25:16;95072.63;;;2.67;100.00
9277;BME280;4676;42.678;23.244;2023-01-24T06:27:46;95078.44;;;2.63;100.00
9277;BME280;4676;42.678;23.244;2023-01-24T06:30:16;95082.56;;;2.61;100.00
9277;BME280;4676;42.678;23.244;2023-01-24T06:32:57;95090.91;;;2.59;100.00
9277;BME280;4676;42.678;23.244;2023-01-24T06:35:35;95088.38;;;2.54;100.00
9277;BME280;4676;42.678;23.244;2023-01-24T06:38:05;95096.72;;;2.53;100.00
9277;BME280;4676;42.678;23.244;2023-01-24T06:40:40;95094.16;;;2.45;100.00
9277;BME280;4676;42.678;23.244;2023-01-24T06:43:08;95095.03;;;2.49;100.00
9277;BME280;4676;42.678;23.244;2023-01-24T06:45:36;95104.94;;;2.38;100.00
9277;BME280;4676;42.678;23.244;2023-01-24T06:48:03;95104.09;;;2.35;100.00
9277;BME280;4676;42.678;23.244;2023-01-24T06:50:30;95086.34;;;2.08;100.00
9277;BME280;4676;42.678;23.244;2023-01-24T06:52:57;95108.94;;;2.17;100.00
9277;BME280;4676;42.678;23.244;2023-01-24T06:55:24;95113.97;;;2.23;100.00
9277;BME280;4676;42.678;23.244;2023-01-24T06:57:53;95113.06;;;2.10;100.00
9277;BME280;4676;42.678;23.244;2023-01-24T07:00:21;95114.69;;;2.04;100.00
9277;BME280;4676;42.678;23.244;2023-01-24T07:02:56;95111.22;;;1.92;100.00
9277;BME280;4676;42.678;23.244;2023-01-24T07:05:23;95107.03;;;1.88;100.00
9277;BME280;4676;42.678;23.244;2023-01-24T07:07:50;95112.06;;;1.91;100.00
9277;BME280;4676;42.678;23.244;2023-01-24T07:10:17;95121.28;;;1.97;100.00
9277;BME280;4676;42.678;23.244;2023-01-24T07:12:44;95096.94;;;1.78;100.00
9277;BME280;4676;42.678;23.244;2023-01-24T07:15:10;95119.56;;;1.93;100.00
9277;BME280;4676;42.678;23.244;2023-01-24T07:17:37;95122.09;;;1.97;100.00
9277;BME280;4676;42.678;23.244;2023-01-24T07:20:07;95123.81;;;2.05;100.00
9277;BME280;4676;42.678;23.244;2023-01-24T07:22:36;95125.41;;;1.93;100.00
9277;BME280;4676;42.678;23.244;2023-01-24T07:25:04;95134.59;;;1.96;100.00
9277;BME280;4676;42.678;23.244;2023-01-24T07:27:32;95127.91;;;1.95;100.00
9277;BME280;4676;42.678;23.244;2023-01-24T07:29:58;95134.66;;;2.02;100.00
9277;BME280;4676;42.678;23.244;2023-01-24T07:32:25;95141.34;;;2.06;100.00
9277;BME280;4676;42.678;23.244;2023-01-24T07:34:52;95140.53;;;2.07;100.00
9277;BME280;4676;42.678;23.244;2023-01-24T07:37:20;95141.34;;;2.03;100.00
9277;BME280;4676;42.678;23.244;2023-01-24T07:39:48;95139.75;;;2.16;100.00
9277;BME280;4676;42.678;23.244;2023-01-24T07:42:15;95152.38;;;2.29;100.00
9277;BME280;4676;42.678;23.244;2023-01-24T07:44:41;95151.53;;;2.27;100.00
9277;BME280;4676;42.678;23.244;2023-01-24T07:47:08;95144.03;;;2.27;100.00
9277;BME280;4676;42.678;23.244;2023-01-24T07:49:35;95152.31;;;2.20;100.00
9277;BME280;4676;42.678;23.244;2023-01-24T07:52:01;95164.88;;;2.25;100.00
9277;BME280;4676;42.678;23.244;2023-01-24T07:54:29;95165.66;;;2.22;100.00
9277;BME280;4676;42.678;23.244;2023-01-24T07:56:56;95173.22;;;2.30;100.00
9277;BME280;4676;42.678;23.244;2023-01-24T07:59:23;95168.28;;;2.34;100.00
9277;BME280;4676;42.678;23.244;2023-01-24T08:01:50;95170.84;;;2.42;100.00
9277;BME280;4676;42.678;23.244;2023-01-24T08:04:17;95172.44;;;2.34;100.00
9277;BME280;4676;42.678;23.244;2023-01-24T08:06:43;95174.13;;;2.36;100.00
9277;BME280;4676;42.678;23.244;2023-01-24T08:09:24;95176.47;;;2.20;100.00
9277;BME280;4676;42.678;23.244;2023-01-24T08:11:53;95168.22;;;2.28;100.00
9277;BME280;4676;42.678;23.244;2023-01-24T08:14:20;95177.41;;;2.32;100.00
9277;BME280;4676;42.678;23.244;2023-01-24T08:16:47;95168.22;;;2.30;100.00
9277;BME280;4676;42.678;23.244;2023-01-24T08:19:14;95175.72;;;2.30;100.00
9277;BME280;4676;42.678;23.244;2023-01-24T08:21:41;95174.91;;;2.28;100.00
9277;BME280;4676;42.678;23.244;2023-01-24T08:24:07;95178.25;;;2.28;100.00
9277;BME280;4676;42.678;23.244;2023-01-24T08:26:34;95176.50;;;2.21;100.00
9277;BME280;4676;42.678;23.244;2023-01-24T08:29:02;95179.88;;;2.25;100.00
9277;BME280;4676;42.678;23.244;2023-01-24T08:31:29;95179.94;;;2.34;100.00
9277;BME280;4676;42.678;23.244;2023-01-24T08:33:56;95183.22;;;2.27;100.00
9277;BME280;4676;42.678;23.244;2023-01-24T08:36:22;95174.88;;;2.25;100.00
9277;BME280;4676;42.678;23.244;2023-01-24T08:38:49;95184.91;;;2.29;100.00
9277;BME280;4676;42.678;23.244;2023-01-24T08:41:16;95189.09;;;2.33;100.00
9277;BME280;4676;42.678;23.244;2023-01-24T08:43:43;95189.13;;;2.36;100.00
9277;BME280;4676;42.678;23.244;2023-01-24T08:46:11;95187.44;;;2.34;100.00
9277;BME280;4676;42.678;23.244;2023-01-24T08:48:38;95190.00;;;2.40;100.00
9277;BME280;4676;42.678;23.244;2023-01-24T08:51:05;95181.75;;;2.51;100.00
9277;BME280;4676;42.678;23.244;2023-01-24T08:53:33;95186.75;;;2.48;100.00
9277;BME280;4676;42.678;23.244;2023-01-24T08:55:59;95193.34;;;2.40;100.00
9277;BME280;4676;42.678;23.244;2023-01-24T08:58:27;95180.06;;;2.46;100.00
9277;BME280;4676;42.678;23.244;2023-01-24T09:00:54;95190.09;;;2.53;100.00
9277;BME280;4676;42.678;23.244;2023-01-24T09:03:22;95184.28;;;2.58;100.00
9277;BME280;4676;42.678;23.244;2023-01-24T09:05:48;95190.88;;;2.45;100.00
9277;BME280;4676;42.678;23.244;2023-01-24T09:08:15;95192.66;;;2.57;100.00
9277;BME280;4676;42.678;23.244;2023-01-24T09:10:43;95191.06;;;2.66;100.00
9277;BME280;4676;42.678;23.244;2023-01-24T09:13:09;95185.25;;;2.72;100.00
9277;BME280;4676;42.678;23.244;2023-01-24T09:15:36;95186.97;;;2.77;100.00
9277;BME280;4676;42.678;23.244;2023-01-24T09:18:03;95186.81;;;2.56;100.00
9277;BME280;4676;42.678;23.244;2023-01-24T09:20:31;95190.91;;;2.51;100.00
9277;BME280;4676;42.678;23.244;2023-01-24T09:22:58;95181.03;;;2.66;100.00
9277;BME280;4676;42.678;23.244;2023-01-24T09:25:25;95184.31;;;2.61;100.00
9277;BME280;4676;42.678;23.244;2023-01-24T09:27:52;95191.91;;;2.71;100.00
9277;BME280;4676;42.678;23.244;2023-01-24T09:30:19;95187.63;;;2.55;100.00
9277;BME280;4676;42.678;23.244;2023-01-24T09:32:47;95186.88;;;2.64;100.00
9277;BME280;4676;42.678;23.244;2023-01-24T09:35:14;95179.44;;;2.74;100.00
9277;BME280;4676;42.678;23.244;2023-01-24T09:37:42;95183.59;;;2.75;100.00
9277;BME280;4676;42.678;23.244;2023-01-24T09:42:52;95156.88;;;2.70;100.00
9277;BME280;4676;42.678;23.244;2023-01-24T09:45:27;95181.19;;;2.84;100.00
9277;BME280;4676;42.678;23.244;2023-01-24T09:47:58;95163.66;;;2.87;100.00
9277;BME280;4676;42.678;23.244;2023-01-24T09:50:31;95175.47;;;3.08;100.00
9277;BME280;4676;42.678;23.244;2023-01-24T09:52:59;95172.22;;;3.20;100.00
9277;BME280;4676;42.678;23.244;2023-01-24T09:55:29;95172.88;;;2.96;100.00
9277;BME280;4676;42.678;23.244;2023-01-24T09:58:01;95177.88;;;2.88;100.00
9277;BME280;4676;42.678;23.244;2023-01-24T10:00:31;95146.78;;;2.61;100.00
9277;BME280;4676;42.678;23.244;2023-01-24T10:02:59;95159.41;;;2.73;100.00
9277;BME280;4676;42.678;23.244;2023-01-24T10:05:32;95157.53;;;2.46;100.00
9277;BME280;4676;42.678;23.244;2023-01-24T10:08:18;95160.91;;;2.51;100.00
9277;BME280;4676;42.678;23.244;2023-01-24T10:10:52;95162.63;;;2.61;100.00
9277;BME280;4676;42.678;23.244;2023-01-24T10:13:35;95156.84;;;2.64;100.00
9277;BME280;4676;42.678;23.244;2023-01-24T10:16:16;95154.25;;;2.55;100.00
9277;BME280;4676;42.678;23.244;2023-01-24T10:18:57;95151.06;;;2.75;100.00
9277;BME280;4676;42.678;23.244;2023-01-24T10:21:47;95152.84;;;2.96;100.00
9277;BME280;4676;42.678;23.244;2023-01-24T10:24:21;95155.41;;;3.00;100.00
9277;BME280;4676;42.678;23.244;2023-01-24T10:26:50;95144.53;;;2.95;100.00
9277;BME280;4676;42.678;23.244;2023-01-24T10:29:19;95147.91;;;2.99;100.00
9277;BME280;4676;42.678;23.244;2023-01-24T10:31:54;95143.56;;;2.78;100.00
9277;BME280;4676;42.678;23.244;2023-01-24T10:34:28;95141.97;;;2.88;100.00
9277;BME280;4676;42.678;23.244;2023-01-24T10:36:58;95137.91;;;3.05;100.00
9277;BME280;4676;42.678;23.244;2023-01-24T10:39:27;95140.34;;;2.94;100.00
9277;BME280;4676;42.678;23.244;2023-01-24T10:41:54;95137.94;;;3.13;100.00
9277;BME280;4676;42.678;23.244;2023-01-24T10:44:24;95123.69;;;3.01;100.00
9277;BME280;4676;42.678;23.244;2023-01-24T10:47:09;95132.84;;;3.00;100.00
9277;BME280;4676;42.678;23.244;2023-01-24T10:49:49;95139.44;;;2.83;100.00
9277;BME280;4676;42.678;23.244;2023-01-24T10:52:19;95135.34;;;2.96;100.00
9277;BME280;4676;42.678;23.244;2023-01-24T10:54:49;95137.88;;;2.99;100.00
9277;BME280;4676;42.678;23.244;2023-01-24T10:57:20;95135.28;;;2.85;100.00
9277;BME280;4676;42.678;23.244;2023-01-24T10:59:51;95136.13;;;2.87;100.00
9277;BME280;4676;42.678;23.244;2023-01-24T11:02:20;95128.66;;;2.95;100.00
9277;BME280;4676;42.678;23.244;2023-01-24T11:04:52;95129.50;;;2.97;100.00
9277;BME280;4676;42.678;23.244;2023-01-24T11:07:28;95086.81;;;2.73;100.00
9277;BME280;4676;42.678;23.244;2023-01-24T11:09:59;95120.28;;;2.87;100.00
9277;BME280;4676;42.678;23.244;2023-01-24T11:12:27;95119.44;;;2.88;100.00
9277;BME280;4676;42.678;23.244;2023-01-24T11:14:54;95123.47;;;2.68;100.00
9277;BME280;4676;42.678;23.244;2023-01-24T11:17:32;95103.44;;;2.62;100.00
9277;BME280;4676;42.678;23.244;2023-01-24T11:20:11;95121.09;;;2.81;100.00
9277;BME280;4676;42.678;23.244;2023-01-24T11:22:49;95107.72;;;2.85;100.00
9277;BME280;4676;42.678;23.244;2023-01-24T11:25:17;95114.44;;;2.88;100.00
9277;BME280;4676;42.678;23.244;2023-01-24T11:27:46;95112.03;;;3.05;100.00
9277;BME280;4676;42.678;23.244;2023-01-24T11:30:17;95112.06;;;3.09;100.00
9277;BME280;4676;42.678;23.244;2023-01-24T11:32:55;95113.63;;;2.92;100.00
9277;BME280;4676;42.678;23.244;2023-01-24T11:35:29;95107.84;;;2.99;100.00
9277;BME280;4676;42.678;23.244;2023-01-24T11:38:23;95114.50;;;2.98;100.00
9277;BME280;4676;42.678;23.244;2023-01-24T11:40:59;95106.16;;;3.01;100.00
9277;BME280;4676;42.678;23.244;2023-01-24T11:46:47;95110.41;;;3.19;100.00
9277;BME280;4676;42.678;23.244;2023-01-24T11:49:27;95109.63;;;3.32;100.00
9277;BME280;4676;42.678;23.244;2023-01-24T11:52:06;95102.94;;;3.32;100.00
9277;BME280;4676;42.678;23.244;2023-01-24T11:54:43;95082.91;;;3.26;100.00
9277;BME280;4676;42.678;23.244;2023-01-24T11:57:25;95106.31;;;3.36;100.00
9277;BME280;4676;42.678;23.244;2023-01-24T12:00:10;95102.13;;;3.36;100.00
9277;BME280;4676;42.678;23.244;2023-01-24T12:03:09;95102.09;;;3.26;100.00
9277;BME280;4676;42.678;23.244;2023-01-24T12:05:50;95102.03;;;3.11;100.00
9277;BME280;4676;42.678;23.244;2023-01-24T12:08:34;95096.13;;;2.98;100.00
9277;BME280;4676;42.678;23.244;2023-01-24T12:11:12;95102.69;;;2.73;100.00
9277;BME280;4676;42.678;23.244;2023-01-24T12:13:46;95104.31;;;2.71;100.00
9277;BME280;4676;42.678;23.244;2023-01-24T12:16:24;95109.31;;;2.70;100.00
9277;BME280;4676;42.678;23.244;2023-01-24T12:19:22;95096.66;;;2.50;100.00
9277;BME280;4676;42.678;23.244;2023-01-24T12:21:54;95102.59;;;2.64;100.00
9277;BME280;4676;42.678;23.244;2023-01-24T12:24:24;95099.28;;;2.68;100.00
9277;BME280;4676;42.678;23.244;2023-01-24T12:26:54;95086.75;;;2.65;100.00
9277;BME280;4676;42.678;23.244;2023-01-24T12:29:27;95095.94;;;2.60;100.00
9277;BME280;4676;42.678;23.244;2023-01-24T12:31:59;95099.97;;;2.44;100.00
9277;BME280;4676;42.678;23.244;2023-01-24T12:34:41;95099.94;;;2.40;100.00
9277;BME280;4676;42.678;23.244;2023-01-24T12:37:15;95099.25;;;2.56;100.00
9277;BME280;4676;42.678;23.244;2023-01-24T12:39:53;95103.38;;;2.54;100.00
9277;BME280;4676;42.678;23.244;2023-01-24T12:42:32;95099.25;;;2.61;100.00
9277;BME280;4676;42.678;23.244;2023-01-24T12:45:13;95106.88;;;2.77;100.00
9277;BME280;4676;42.678;23.244;2023-01-24T12:47:45;95106.09;;;2.84;100.00
9277;BME280;4676;42.678;23.244;2023-01-24T12:50:18;95097.78;;;2.91;100.00
9277;BME280;4676;42.678;23.244;2023-01-24T12:52:54;95077.63;;;2.67;100.00
9277;BME280;4676;42.678;23.244;2023-01-24T12:55:28;95104.34;;;2.76;100.00
9277;BME280;4676;42.678;23.244;2023-01-24T12:58:00;95105.19;;;2.76;100.00
9277;BME280;4676;42.678;23.244;2023-01-24T13:00:40;95102.63;;;2.69;100.00
9277;BME280;4676;42.678;23.244;2023-01-24T13:03:34;95102.53;;;2.52;100.00
9277;BME280;4676;42.678;23.244;2023-01-24T13:06:11;95102.47;;;2.43;100.00
9277;BME280;4676;42.678;23.244;2023-01-24T13:08:50;95022.03;;;1.85;100.00
9277;BME280;4676;42.678;23.244;2023-01-24T13:11:21;95106.66;;;2.45;100.00
9277;BME280;4676;42.678;23.244;2023-01-24T13:14:05;95106.63;;;2.41;100.00
9277;BME280;4676;42.678;23.244;2023-01-24T13:16:54;95100.03;;;2.49;100.00
9277;BME280;4676;42.678;23.244;2023-01-24T13:19:49;95101.75;;;2.56;100.00
9277;BME280;4676;42.678;23.244;2023-01-24T13:22:30;95101.69;;;2.51;100.00
9277;BME280;4676;42.678;23.244;2023-01-24T13:25:05;95095.84;;;2.49;100.00
9277;BME280;4676;42.678;23.244;2023-01-24T13:27:41;95072.44;;;2.38;100.00
9277;BME280;4676;42.678;23.244;2023-01-24T13:30:22;95103.47;;;2.69;100.00
9277;BME280;4676;42.678;23.244;2023-01-24T13:32:58;95100.09;;;2.61;100.00
9277;BME280;4676;42.678;23.244;2023-01-24T13:35:26;95107.66;;;2.67;100.00
9277;BME280;4676;42.678;23.244;2023-01-24T13:37:56;95113.50;;;2.72;100.00